createdAt,value
2023-03-06T00:00:49.770Z,83.14
2023-03-06T00:03:16.955Z,83.68
2023-03-06T00:05:44.046Z,83.03
2023-03-06T00:08:11.100Z,84.17
2023-03-06T00:10:38.311Z,83.58
2023-03-06T00:13:10.947Z,85.40
2023-03-06T00:15:37.778Z,85.19
2023-03-06T00:18:05.729Z,84.61
2023-03-06T00:20:33.931Z,84.04
2023-03-06T00:23:00.708Z,83.78
2023-03-06T00:25:27.686Z,83.90
2023-03-06T00:27:54.459Z,83.54
2023-03-06T00:30:25.416Z,83.24
2023-03-06T00:32:53.289Z,83.20
2023-03-06T00:35:20.571Z,84.43
2023-03-06T00:37:47.583Z,84.89
2023-03-06T00:40:17.121Z,85.53
2023-03-06T00:42:44.594Z,86.08
2023-03-06T00:45:13.371Z,86.22
2023-03-06T00:47:40.721Z,86.92
2023-03-06T00:50:08.595Z,87.39
2023-03-06T00:52:36.369Z,87.42
2023-03-06T00:55:03.837Z,87.46
2023-03-06T00:57:30.576Z,87.15
2023-03-06T00:59:57.537Z,86.61
2023-03-06T01:02:24.510Z,86.18
2023-03-06T01:04:54.580Z,85.41
2023-03-06T01:07:21.409Z,86.06
2023-03-06T01:09:48.176Z,85.71
2023-03-06T01:12:15.344Z,85.05
2023-03-06T01:14:42.201Z,85.68
2023-03-06T01:17:10.013Z,86.69
2023-03-06T01:19:37.076Z,86.52
2023-03-06T01:22:04.183Z,87.12
2023-03-06T01:24:31.646Z,87.60
2023-03-06T01:26:58.429Z,87.43
2023-03-06T01:29:26.587Z,86.99
2023-03-06T01:31:53.530Z,85.90
2023-03-06T01:34:20.881Z,84.54
2023-03-06T01:36:47.660Z,83.72
2023-03-06T01:39:14.460Z,84.71
2023-03-06T01:41:41.370Z,84.83
2023-03-06T01:44:11.006Z,84.76
2023-03-06T01:46:42.953Z,84.37
2023-03-06T01:49:09.658Z,84.30
2023-03-06T01:51:48.744Z,84.38
2023-03-06T01:54:21.686Z,84.52
2023-03-06T01:56:52.766Z,84.88
2023-03-06T01:59:21.898Z,85.34
2023-03-06T02:01:49.805Z,84.98
2023-03-06T02:04:17.909Z,84.61
2023-03-06T02:06:45.011Z,83.94
2023-03-06T02:09:13.650Z,84.62
2023-03-06T02:11:44.150Z,84.43
2023-03-06T02:14:14.260Z,85.13
2023-03-06T02:16:42.120Z,85.54
2023-03-06T02:19:29.463Z,85.25
2023-03-06T02:21:56.507Z,84.26
2023-03-06T02:24:44.904Z,84.88
2023-03-06T02:27:14.514Z,85.09
2023-03-06T02:29:41.971Z,87.00
2023-03-06T02:32:09.722Z,86.36
2023-03-06T02:34:39.322Z,87.85
2023-03-06T02:37:11.117Z,87.53
2023-03-06T02:39:46.547Z,87.89
2023-03-06T02:42:22.138Z,89.87
2023-03-06T02:44:49.753Z,90.04
2023-03-06T02:47:16.517Z,91.25
2023-03-06T02:49:43.327Z,90.35
2023-03-06T02:52:10.403Z,90.97
2023-03-06T02:54:39.265Z,91.11
2023-03-06T02:57:06.922Z,90.62
2023-03-06T02:59:34.303Z,89.92
2023-03-06T03:02:02.410Z,89.41
2023-03-06T03:04:29.170Z,89.40
2023-03-06T03:06:56.961Z,89.64
2023-03-06T03:09:25.177Z,89.40
2023-03-06T03:11:52.228Z,90.10
2023-03-06T03:14:19.372Z,89.68
2023-03-06T03:16:47.538Z,90.58
2023-03-06T03:19:14.672Z,91.88
2023-03-06T03:21:42.662Z,93.15
2023-03-06T03:24:09.566Z,93.22
2023-03-06T03:26:36.714Z,94.96
2023-03-06T03:29:09.824Z,94.54
2023-03-06T03:31:36.835Z,94.27
2023-03-06T03:34:04.305Z,94.85
2023-03-06T03:36:34.672Z,93.81
2023-03-06T03:39:03.557Z,93.23
2023-03-06T03:41:30.618Z,94.12
2023-03-06T03:43:57.462Z,94.63
2023-03-06T03:46:24.708Z,94.31
2023-03-06T03:48:52.885Z,94.03
2023-03-06T03:51:20.073Z,92.70
2023-03-06T03:53:51.030Z,93.47
2023-03-06T03:56:21.257Z,94.52
2023-03-06T03:58:57.849Z,94.86
2023-03-06T04:01:27.875Z,93.90
2023-03-06T04:03:55.011Z,94.27
2023-03-06T04:06:21.771Z,92.51
2023-03-06T04:08:48.551Z,91.38
2023-03-06T04:11:15.912Z,90.08
2023-03-06T04:13:43.302Z,91.15
2023-03-06T04:16:10.272Z,90.67
2023-03-06T04:18:38.659Z,91.80
2023-03-06T04:21:06.377Z,90.93
2023-03-06T04:23:33.644Z,90.59
2023-03-06T04:26:00.476Z,91.27
2023-03-06T04:28:27.777Z,92.58
2023-03-06T04:30:54.569Z,92.14
2023-03-06T04:33:21.666Z,91.36
2023-03-06T04:35:48.799Z,91.18
2023-03-06T04:38:21.265Z,90.90
2023-03-06T04:40:49.774Z,90.49
2023-03-06T04:43:17.100Z,91.92
2023-03-06T04:45:44.088Z,91.49
2023-03-06T04:48:14.466Z,93.83
2023-03-06T04:50:41.851Z,94.38
2023-03-06T04:53:09.629Z,94.29
2023-03-06T04:55:36.553Z,93.83
2023-03-06T04:58:03.362Z,93.38
2023-03-06T05:00:33.388Z,93.15
2023-03-06T05:03:00.936Z,92.31
2023-03-06T05:05:28.360Z,92.99
2023-03-06T05:07:55.814Z,94.04
2023-03-06T05:10:23.099Z,92.57
2023-03-06T05:12:49.838Z,93.00
2023-03-06T05:15:17.487Z,92.99
2023-03-06T05:17:44.575Z,93.34
2023-03-06T05:20:12.784Z,93.68
2023-03-06T05:22:39.670Z,93.74
2023-03-06T05:25:06.916Z,92.97
2023-03-06T05:27:33.960Z,93.47
2023-03-06T05:30:00.971Z,94.06
2023-03-06T05:32:28.476Z,94.03
2023-03-06T05:34:55.723Z,94.59
2023-03-06T05:37:25.730Z,95.41
2023-03-06T05:39:53.028Z,94.94
2023-03-06T05:42:19.917Z,94.75
2023-03-06T05:44:46.661Z,95.16
2023-03-06T05:47:13.649Z,97.16
2023-03-06T05:49:40.543Z,96.38
2023-03-06T05:52:08.917Z,97.42
2023-03-06T05:54:37.135Z,97.18
2023-03-06T05:57:05.165Z,97.85
2023-03-06T05:59:33.097Z,98.95
2023-03-06T06:02:01.409Z,100.00
2023-03-06T06:04:28.517Z,100.00
2023-03-06T06:06:58.175Z,100.00
2023-03-06T06:09:25.942Z,100.00
2023-03-06T06:11:59.946Z,100.00
2023-03-06T06:14:26.952Z,100.00
2023-03-06T06:16:53.896Z,99.58
2023-03-06T06:19:21.774Z,100.00
2023-03-06T06:21:53.986Z,98.71
2023-03-06T06:24:23.103Z,96.28
2023-03-06T06:26:51.864Z,99.42
2023-03-06T06:29:19.123Z,98.79
2023-03-06T06:31:46.198Z,98.58
2023-03-06T06:34:14.014Z,97.63
2023-03-06T06:36:41.802Z,95.18
2023-03-06T06:39:09.854Z,92.95
2023-03-06T06:41:55.221Z,93.53
2023-03-06T06:44:23.719Z,93.75
2023-03-06T06:49:38.125Z,91.35
2023-03-06T06:52:06.219Z,90.41
2023-03-06T06:54:34.426Z,89.80
2023-03-06T06:57:01.129Z,88.22
2023-03-06T06:59:27.974Z,86.40
2023-03-06T07:01:54.701Z,86.57
2023-03-06T07:04:21.727Z,86.67
2023-03-06T07:06:48.602Z,86.54
2023-03-06T07:09:15.376Z,85.52
2023-03-06T07:11:42.399Z,84.04
2023-03-06T07:14:09.176Z,83.14
2023-03-06T07:16:36.024Z,83.42
2023-03-06T07:19:02.812Z,82.87
2023-03-06T07:21:29.487Z,81.63
2023-03-06T07:23:57.589Z,77.64
2023-03-06T07:26:26.232Z,80.79
2023-03-06T07:28:53.819Z,80.84
2023-03-06T07:31:23.264Z,78.98
2023-03-06T07:33:50.858Z,79.69
2023-03-06T07:36:18.443Z,78.85
2023-03-06T07:38:45.348Z,77.66
2023-03-06T07:41:13.838Z,78.43
2023-03-06T07:43:41.731Z,78.15
2023-03-06T07:46:09.347Z,77.33
2023-03-06T07:48:37.718Z,78.41
2023-03-06T07:51:07.197Z,78.37
2023-03-06T07:53:34.961Z,77.34
2023-03-06T07:56:08.570Z,77.24
2023-03-06T07:58:36.700Z,76.24
2023-03-06T08:01:10.313Z,76.62
2023-03-06T08:03:37.676Z,75.79
2023-03-06T08:06:08.949Z,73.90
2023-03-06T08:08:37.252Z,72.99
2023-03-06T08:11:04.114Z,73.27
2023-03-06T08:13:30.994Z,72.77
2023-03-06T08:15:57.845Z,72.01
2023-03-06T08:18:24.619Z,70.86
2023-03-06T08:21:00.532Z,70.95
2023-03-06T08:23:27.264Z,70.61
2023-03-06T08:25:59.489Z,67.92
2023-03-06T08:28:26.485Z,67.74
2023-03-06T08:30:53.648Z,69.11
2023-03-06T08:33:20.688Z,68.32
2023-03-06T08:35:47.509Z,68.07
2023-03-06T08:38:14.762Z,66.84
2023-03-06T08:40:41.536Z,67.50
2023-03-06T08:43:13.995Z,66.34
2023-03-06T08:45:41.270Z,66.22
2023-03-06T08:48:08.177Z,65.87
2023-03-06T08:50:35.158Z,66.27
2023-03-06T08:53:01.946Z,64.63
2023-03-06T08:55:28.712Z,65.98
2023-03-06T08:57:55.437Z,64.86
2023-03-06T09:00:22.430Z,64.89
2023-03-06T09:02:49.281Z,64.86
2023-03-06T09:05:16.055Z,64.20
2023-03-06T09:07:42.989Z,63.72
2023-03-06T09:10:15.476Z,63.89
2023-03-06T09:12:52.488Z,63.26
2023-03-06T09:15:22.333Z,63.27
2023-03-06T09:17:49.290Z,62.85
2023-03-06T09:20:17.324Z,62.31
2023-03-06T09:22:45.598Z,62.41
2023-03-06T09:25:14.300Z,60.60
2023-03-06T09:27:41.292Z,60.64
2023-03-06T09:30:09.182Z,60.24
2023-03-06T09:32:36.036Z,60.05
2023-03-06T09:35:02.882Z,60.30
2023-03-06T09:37:29.842Z,60.37
2023-03-06T09:39:57.820Z,59.49
2023-03-06T09:42:25.183Z,59.29
2023-03-06T09:44:55.633Z,59.91
2023-03-06T09:47:38.354Z,59.51
2023-03-06T09:50:27.195Z,60.26
2023-03-06T09:53:15.192Z,58.36
2023-03-06T09:55:46.114Z,57.54
2023-03-06T09:58:30.907Z,58.25
2023-03-06T10:01:03.787Z,57.89
2023-03-06T10:03:47.484Z,58.18
2023-03-06T10:06:26.507Z,55.19
2023-03-06T10:09:01.463Z,54.13
2023-03-06T10:11:35.906Z,54.18
2023-03-06T10:14:24.651Z,54.34
2023-03-06T10:16:51.686Z,53.67
2023-03-06T10:19:20.953Z,53.21
2023-03-06T10:22:06.104Z,53.74
2023-03-06T10:25:00.372Z,52.50
2023-03-06T10:27:48.335Z,52.58
2023-03-06T10:30:33.935Z,52.40
2023-03-06T10:33:25.921Z,52.09
2023-03-06T10:35:55.961Z,58.32
2023-03-06T10:38:37.539Z,57.80
2023-03-06T10:41:13.532Z,65.42
2023-03-06T10:44:03.817Z,68.12
2023-03-06T10:46:37.871Z,67.16
2023-03-06T10:49:22.722Z,65.17
2023-03-06T10:51:57.504Z,65.50
2023-03-06T10:54:24.563Z,66.69
2023-03-06T10:56:51.381Z,66.44
2023-03-06T10:59:23.033Z,62.60
2023-03-06T11:01:52.862Z,60.66
2023-03-06T11:04:31.993Z,63.97
2023-03-06T11:07:27.287Z,64.04
2023-03-06T11:09:57.119Z,61.72
2023-03-06T11:12:32.929Z,60.50
2023-03-06T11:15:23.674Z,57.17
2023-03-06T11:18:36.450Z,56.50
2023-03-06T11:21:07.436Z,56.82
2023-03-06T11:23:42.854Z,57.76
2023-03-06T11:26:15.669Z,57.40
2023-03-06T11:28:45.062Z,58.73
2023-03-06T11:31:24.104Z,60.03
2023-03-06T11:33:56.782Z,56.60
2023-03-06T11:36:40.122Z,56.75
2023-03-06T11:39:28.019Z,56.35
2023-03-06T11:42:13.410Z,56.82
2023-03-06T11:45:03.063Z,57.25
2023-03-06T11:47:36.629Z,55.76
2023-03-06T11:50:35.736Z,55.83
2023-03-06T11:53:05.653Z,56.31
2023-03-06T11:55:50.991Z,56.46
2023-03-06T11:58:23.922Z,56.32
2023-03-06T12:01:09.373Z,56.29
2023-03-06T12:04:03.975Z,57.50
2023-03-06T12:06:51.132Z,56.16
2023-03-06T12:09:55.507Z,56.54
2023-03-06T12:12:34.111Z,56.95
2023-03-06T12:15:22.649Z,57.63
2023-03-06T12:18:13.279Z,58.14
2023-03-06T12:21:07.245Z,58.76
2023-03-06T12:23:43.010Z,58.74
2023-03-06T12:26:15.909Z,58.76
2023-03-06T12:28:50.353Z,58.92
2023-03-06T12:31:33.998Z,58.72
2023-03-06T12:34:07.925Z,60.33
2023-03-06T12:37:00.767Z,59.39
2023-03-06T12:40:06.977Z,59.36
2023-03-06T12:42:59.353Z,60.23
2023-03-06T12:45:37.113Z,60.43
2023-03-06T12:48:14.985Z,60.78
2023-03-06T12:50:44.572Z,61.59
2023-03-06T12:53:22.766Z,61.01
2023-03-06T12:55:51.361Z,61.12
2023-03-06T12:58:57.255Z,60.63
2023-03-06T13:02:12.044Z,61.20
2023-03-06T13:04:45.607Z,63.45
2023-03-06T13:07:15.421Z,64.70
2023-03-06T13:10:05.749Z,64.75
2023-03-06T13:12:55.811Z,64.24
2023-03-06T13:15:29.290Z,64.82
2023-03-06T13:17:56.928Z,64.86
2023-03-06T13:20:30.071Z,65.61
2023-03-06T13:22:57.261Z,64.33
2023-03-06T13:25:23.929Z,64.54
2023-03-06T13:28:03.350Z,63.51
2023-03-06T13:30:39.917Z,63.95
2023-03-06T13:33:30.104Z,64.71
2023-03-06T13:35:58.284Z,64.06
2023-03-06T13:38:53.112Z,65.21
2023-03-06T13:41:22.990Z,65.90
2023-03-06T13:43:55.671Z,65.90
2023-03-06T13:46:27.897Z,66.23
2023-03-06T13:49:13.106Z,64.13
2023-03-06T13:52:18.292Z,66.10
2023-03-06T13:54:54.032Z,65.06
2023-03-06T13:57:54.500Z,65.12
2023-03-06T14:00:59.157Z,68.97
2023-03-06T14:03:51.293Z,69.07
2023-03-06T14:06:37.330Z,68.44
2023-03-06T14:09:08.315Z,67.92
2023-03-06T14:11:36.383Z,66.96
2023-03-06T14:14:03.842Z,66.00
2023-03-06T14:16:49.495Z,66.43
2023-03-06T14:19:19.246Z,66.01
2023-03-06T14:21:51.205Z,67.29
2023-03-06T14:24:20.163Z,66.18
2023-03-06T14:26:51.385Z,66.05
2023-03-06T14:29:23.400Z,66.76
2023-03-06T14:31:52.965Z,65.66
2023-03-06T14:34:26.898Z,65.25
2023-03-06T14:36:55.965Z,65.36
2023-03-06T14:39:41.823Z,66.79
2023-03-06T14:42:15.507Z,68.08
2023-03-06T14:44:42.858Z,67.37
2023-03-06T14:47:28.794Z,68.08
2023-03-06T14:50:33.617Z,69.64
2023-03-06T14:53:25.457Z,71.95
2023-03-06T14:55:58.012Z,72.36
2023-03-06T14:58:38.869Z,72.33
2023-03-06T15:01:08.997Z,72.07
2023-03-06T15:03:44.447Z,72.44
2023-03-06T15:06:20.097Z,73.46
2023-03-06T15:08:52.953Z,71.91
2023-03-06T15:11:19.763Z,69.89
2023-03-06T15:14:00.799Z,69.55
2023-03-06T15:16:30.171Z,68.41
2023-03-06T15:19:00.573Z,68.28
2023-03-06T15:21:36.303Z,68.19
2023-03-06T15:24:31.648Z,68.52
2023-03-06T15:27:03.492Z,69.46
2023-03-06T15:29:30.657Z,69.91
2023-03-06T15:32:33.574Z,69.63
2023-03-06T15:35:25.547Z,70.03
2023-03-06T15:37:53.057Z,70.42
2023-03-06T15:40:22.347Z,70.25
2023-03-06T15:42:52.358Z,70.53
2023-03-06T15:45:20.732Z,70.64
2023-03-06T15:47:49.199Z,70.54
2023-03-06T15:50:21.372Z,70.60
2023-03-06T15:52:49.359Z,70.81
2023-03-06T15:55:18.395Z,71.49
2023-03-06T15:57:51.726Z,71.20
2023-03-06T16:00:28.691Z,71.55
2023-03-06T16:02:58.951Z,71.66
2023-03-06T16:05:27.481Z,71.61
2023-03-06T16:07:55.136Z,73.91
2023-03-06T16:10:24.302Z,73.24
2023-03-06T16:12:54.537Z,72.43
2023-03-06T16:15:25.384Z,72.49
2023-03-06T16:17:52.300Z,72.31
2023-03-06T16:20:21.555Z,72.38
2023-03-06T16:22:53.837Z,72.14
2023-03-06T16:25:22.686Z,71.35
2023-03-06T16:27:58.120Z,70.82
2023-03-06T16:30:35.540Z,71.75
2023-03-06T16:33:03.537Z,71.76
2023-03-06T16:35:30.463Z,72.38
2023-03-06T16:37:58.685Z,72.32
2023-03-06T16:40:32.607Z,72.66
2023-03-06T16:42:59.639Z,74.01
2023-03-06T16:45:26.583Z,75.51
2023-03-06T16:47:54.377Z,76.84
2023-03-06T16:50:30.156Z,75.35
2023-03-06T16:52:58.275Z,74.44
2023-03-06T16:55:26.892Z,74.91
2023-03-06T16:57:54.776Z,75.18
2023-03-06T17:00:24.623Z,75.91
2023-03-06T17:02:52.373Z,75.70
2023-03-06T17:05:19.968Z,75.76
2023-03-06T17:07:47.543Z,74.60
2023-03-06T17:10:16.263Z,74.43
2023-03-06T17:12:43.699Z,74.71
2023-03-06T17:15:11.642Z,75.16
2023-03-06T17:17:38.478Z,74.90
2023-03-06T17:20:11.877Z,74.33
2023-03-06T17:22:39.428Z,74.35
2023-03-06T17:25:07.636Z,76.26
2023-03-06T17:27:35.477Z,80.20
2023-03-06T17:30:02.659Z,82.59
2023-03-06T17:32:29.482Z,89.90
2023-03-06T17:34:56.638Z,100.00
2023-03-06T17:37:23.464Z,100.00
2023-03-06T17:39:50.203Z,100.00
2023-03-06T17:42:17.215Z,100.00
2023-03-06T17:44:43.948Z,100.00
2023-03-06T17:47:10.879Z,100.00
2023-03-06T17:49:37.804Z,100.00
2023-03-06T17:52:05.752Z,100.00
2023-03-06T17:54:33.379Z,100.00
2023-03-06T17:57:03.421Z,100.00
2023-03-06T17:59:33.966Z,100.00
2023-03-06T18:02:01.884Z,100.00
2023-03-06T18:04:29.082Z,100.00
2023-03-06T18:06:57.126Z,100.00
2023-03-06T18:09:24.884Z,100.00
2023-03-06T18:11:51.696Z,100.00
2023-03-06T18:14:18.491Z,100.00
2023-03-06T18:16:45.376Z,100.00
2023-03-06T18:19:12.260Z,100.00
2023-03-06T18:21:40.110Z,100.00
2023-03-06T18:24:07.464Z,100.00
2023-03-06T18:26:34.198Z,100.00
2023-03-06T18:29:04.464Z,100.00
2023-03-06T18:31:40.222Z,100.00
2023-03-06T18:34:10.289Z,100.00
2023-03-06T18:36:37.418Z,100.00
2023-03-06T18:39:08.703Z,100.00
2023-03-06T18:41:36.229Z,100.00
2023-03-06T18:44:03.121Z,100.00
2023-03-06T18:46:32.541Z,100.00
2023-03-06T18:48:59.858Z,100.00
2023-03-06T18:51:27.463Z,100.00
2023-03-06T18:53:57.581Z,100.00
2023-03-06T18:56:24.838Z,100.00
2023-03-06T18:58:52.117Z,100.00
2023-03-06T19:01:19.090Z,100.00
2023-03-06T19:03:46.376Z,100.00
2023-03-06T19:06:14.889Z,100.00
2023-03-06T19:08:41.916Z,100.00
2023-03-06T19:11:11.854Z,100.00
2023-03-06T19:13:39.111Z,100.00
2023-03-06T19:16:06.691Z,100.00
2023-03-06T19:18:34.058Z,100.00
2023-03-06T19:21:14.348Z,100.00
2023-03-06T19:23:41.830Z,100.00
2023-03-06T19:26:09.480Z,100.00
2023-03-06T19:28:38.488Z,100.00
2023-03-06T19:31:19.618Z,100.00
2023-03-06T19:33:48.305Z,100.00
2023-03-06T19:36:16.910Z,100.00
2023-03-06T19:38:43.731Z,100.00
2023-03-06T19:41:13.487Z,100.00
2023-03-06T19:43:41.796Z,100.00
2023-03-06T19:46:15.119Z,100.00
2023-03-06T19:48:42.654Z,100.00
2023-03-06T19:51:10.503Z,100.00
2023-03-06T19:53:37.848Z,100.00
2023-03-06T19:56:06.912Z,100.00
2023-03-06T19:58:33.983Z,100.00
2023-03-06T20:01:10.376Z,100.00
2023-03-06T20:03:37.222Z,100.00
2023-03-06T20:06:08.930Z,100.00
2023-03-06T20:08:36.507Z,100.00
2023-03-06T20:11:04.116Z,100.00
2023-03-06T20:13:31.586Z,100.00
2023-03-06T20:16:02.914Z,100.00
2023-03-06T20:18:29.719Z,100.00
2023-03-06T20:21:04.621Z,100.00
2023-03-06T20:23:32.094Z,100.00
2023-03-06T20:26:09.548Z,100.00
2023-03-06T20:28:39.111Z,100.00
2023-03-06T20:31:11.217Z,100.00
2023-03-06T20:33:38.120Z,100.00
2023-03-06T20:36:11.585Z,100.00
2023-03-06T20:38:39.092Z,100.00
2023-03-06T20:41:05.759Z,100.00
2023-03-06T20:43:32.492Z,100.00
2023-03-06T20:46:02.566Z,100.00
2023-03-06T20:48:29.756Z,100.00
2023-03-06T20:51:21.022Z,100.00
2023-03-06T20:53:49.233Z,100.00
2023-03-06T20:56:19.336Z,100.00
2023-03-06T20:58:46.215Z,100.00
2023-03-06T21:01:20.946Z,100.00
2023-03-06T21:03:48.464Z,100.00
2023-03-06T21:06:15.800Z,100.00
2023-03-06T21:08:43.370Z,100.00
2023-03-06T21:11:10.132Z,100.00
2023-03-06T21:13:37.032Z,100.00
2023-03-06T21:16:09.821Z,100.00
2023-03-06T21:18:36.939Z,100.00
2023-03-06T21:21:09.154Z,100.00
2023-03-06T21:23:36.829Z,100.00
2023-03-06T21:26:03.822Z,100.00
2023-03-06T21:28:30.954Z,100.00
2023-03-06T21:31:00.682Z,100.00
2023-03-06T21:33:27.839Z,100.00
2023-03-06T21:35:54.789Z,100.00
2023-03-06T21:38:21.590Z,100.00
2023-03-06T21:40:48.322Z,100.00
2023-03-06T21:43:17.467Z,100.00
2023-03-06T21:45:48.655Z,100.00
2023-03-06T21:48:15.877Z,100.00
2023-03-06T21:50:42.619Z,100.00
2023-03-06T21:53:09.761Z,100.00
2023-03-06T21:55:40.897Z,100.00
2023-03-06T21:58:07.686Z,100.00
2023-03-06T22:00:36.489Z,100.00
2023-03-06T22:03:04.871Z,100.00
2023-03-06T22:05:32.085Z,100.00
2023-03-06T22:07:59.269Z,100.00
2023-03-06T22:10:26.038Z,100.00
2023-03-06T22:12:52.825Z,100.00
2023-03-06T22:15:21.847Z,100.00
2023-03-06T22:17:48.873Z,100.00
2023-03-06T22:20:16.039Z,100.00
2023-03-06T22:22:43.709Z,100.00
2023-03-06T22:25:11.898Z,100.00
2023-03-06T22:27:39.012Z,100.00
2023-03-06T22:30:06.359Z,100.00
2023-03-06T22:32:33.373Z,100.00
2023-03-06T22:35:00.156Z,100.00
2023-03-06T22:37:26.869Z,100.00
2023-03-06T22:39:53.618Z,100.00
2023-03-06T22:42:20.359Z,100.00
2023-03-06T22:44:47.206Z,100.00
2023-03-06T22:47:14.033Z,100.00
2023-03-06T22:49:40.774Z,100.00
2023-03-06T22:52:07.466Z,100.00
2023-03-06T22:54:34.362Z,100.00
2023-03-06T22:57:01.090Z,100.00
2023-03-06T22:59:27.835Z,100.00
2023-03-06T23:01:54.582Z,100.00
2023-03-06T23:04:21.382Z,100.00
2023-03-06T23:06:48.244Z,100.00
2023-03-06T23:09:23.395Z,100.00
2023-03-06T23:12:11.556Z,100.00
2023-03-06T23:14:57.064Z,100.00
2023-03-06T23:17:42.311Z,100.00
2023-03-06T23:20:28.437Z,100.00
2023-03-06T23:23:13.965Z,100.00
2023-03-06T23:25:40.730Z,100.00
2023-03-06T23:28:07.702Z,100.00
2023-03-06T23:30:34.813Z,100.00
2023-03-06T23:33:01.515Z,100.00
2023-03-06T23:35:28.391Z,100.00
2023-03-06T23:37:55.310Z,100.00
2023-03-06T23:40:22.340Z,100.00
2023-03-06T23:42:49.401Z,100.00
2023-03-06T23:45:16.760Z,100.00
2023-03-06T23:47:43.521Z,100.00
2023-03-06T23:50:13.502Z,100.00
2023-03-06T23:52:40.693Z,100.00
2023-03-06T23:55:07.843Z,100.00
2023-03-06T23:57:34.796Z,100.00
